Terminal Aerodrome Forecast
Issued by NWS

Home | Current Version | Previous Version | Text Only | Print | Product List | Glossary On
Versions: 1 2 3 4 5 6 7 8 9 10 11 12 13 14 15
000
FTUS43 KIND 251700
TAFHUF
TAF
KHUF 251725Z 2518/2618 20016G28KT P6SM BKN025
     FM252000 18012G24KT P6SM BKN035
     FM260100 17009KT P6SM OVC040
     FM260600 17006KT 3SM BR OVC015
     FM261330 19012G23KT P6SM BKN035=

USA.gov is the U.S. government's official web portal to all federal, state and local government web resources and services.